Wednesday, January 17, 2018, 9:47 AM EST
Back to Local

KHUL, Houlton Int'l Airport

Location: Houlton, ME, United States Lat: 46.117
Local Time: 9:47 AM EST (14:47 GMT) Lon: -67.8
Time Zone: US/Eastern Elev: 492 ft

Show me the last for .
Show Decoded

2018-01-17 08:53 METAR KHUL 171353Z AUTO 19005KT 6SM BR BKN047 BKN055 OVC095 M07/M09 A3034 RMK
                 AO2 SLP288 T10721094 =
2018-01-17 07:53 METAR KHUL 171253Z AUTO 18005KT 6SM BR OVC060 M08/M10 A3035 RMK AO2 SLP289
                 T10831100 =
2018-01-17 06:53 METAR KHUL 171153Z AUTO 00000KT 6SM BR BKN060 OVC080 M09/M11 A3035 RMK AO2
                 SLP291 60000 T10941111 11089 21111 56004 =
2018-01-17 05:53 METAR KHUL 171053Z AUTO 18004KT 5SM BR OVC050 M09/M11 A3036 RMK AO2 SNE52 SLP294
                 P0000 T10891106 =
2018-01-17 05:22 METAR KHUL 171022Z AUTO 18005KT 3SM -SN BR OVC047 M09/M11 A3036 RMK AO2 P0000
                 T10891106 =
2018-01-17 05:12 METAR KHUL 171012Z AUTO 19005KT 2 1/2SM -SN BR OVC045 M09/M11 A3036 RMK AO2
                 P0000 T10891106 =
2018-01-17 04:53 METAR KHUL 170953Z AUTO 19005KT 3SM -SN BR OVC047 M09/M11 A3035 RMK AO2 SLP290
                 P0000 T10891106 =
2018-01-17 04:07 METAR KHUL 170907Z AUTO 19004KT 3SM -SN BR OVC040 M09/M11 A3036 RMK AO2 P0000
                 T10941111 =
2018-01-17 03:53 METAR KHUL 170853Z AUTO 19004KT 2 1/2SM -SN BR OVC036 M09/M11 A3037 RMK AO2
                 SLP294 P0000 60000 T10941111 58002 =
2018-01-17 03:34 METAR KHUL 170834Z AUTO 20003KT 2SM -SN BR OVC030 M09/M11 A3037 RMK AO2 P0000
                 T10941111 =
2018-01-17 03:26 METAR KHUL 170826Z AUTO 19003KT 1 3/4SM -SN BR OVC028 M09/M11 A3037 RMK AO2
                 P0000 T10941111 =
2018-01-17 03:17 METAR KHUL 170817Z AUTO 20003KT 2SM -SN BR OVC028 M09/M11 A3038 RMK AO2 P0000
                 T10941111 =
2018-01-17 03:11 METAR KHUL 170811Z AUTO 00000KT 1 3/4SM -SN BR OVC030 M09/M11 A3038 RMK AO2
                 P0000 T10941111 =
2018-01-17 02:53 METAR KHUL 170753Z AUTO 21003KT 2SM -SN BR OVC034 M09/M12 A3038 RMK AO2 SNB27
                 SLP299 P0000 T10941117 =
2018-01-17 01:53 METAR KHUL 170653Z AUTO 22003KT 10SM BKN055 OVC075 M11/M12 A3037 RMK AO2 SLP296
                 T11061122 =
2018-01-17 00:53 METAR KHUL 170553Z AUTO 21003KT 10SM OVC065 M11/M13 A3037 RMK AO2 SLP297
                 T11111128 11106 21189 56012 =
2018-01-16 23:53 METAR KHUL 170453Z AUTO 20003KT 10SM BKN090 OVC100 M13/M14 A3038 RMK AO2 SLP299
                 T11281144 410941189 =
2018-01-16 22:53 METAR KHUL 170353Z AUTO 19004KT 10SM SCT060 M16/M18 A3039 RMK AO2 SLP304
                 T11561178 =
2018-01-16 21:53 METAR KHUL 170253Z AUTO 00000KT 10SM BKN060 M17/M19 A3041 RMK AO2 SLP311
                 T11721189 58003 =
2018-01-16 20:53 METAR KHUL 170153Z AUTO 00000KT 10SM OVC060 M18/M20 A3042 RMK AO2 SLP314
                 T11781200 =
2018-01-16 19:53 METAR KHUL 170053Z AUTO 00000KT 10SM CLR M18/M21 A3041 RMK AO2 SLP313 T11831206
                 =
2018-01-16 18:53 METAR KHUL 162353Z AUTO 00000KT 10SM CLR M18/M19 A3042 RMK AO2 SLP314 60000
                 I1000 I6000 T11781194 11094 21178 50002 =
2018-01-16 17:53 METAR KHUL 162253Z AUTO 00000KT 10SM CLR M17/M18 A3042 RMK AO2 SLP315 T11721183
                 =
2018-01-16 16:53 METAR KHUL 162153Z AUTO 00000KT 10SM SCT015 M14/M16 A3042 RMK AO2 SLP313
                 T11391156 =
2018-01-16 15:53 METAR KHUL 162053Z AUTO 00000KT 10SM CLR M11/M13 A3041 RMK AO2 SLP311 60000
                 T11061128 53001 =
2018-01-16 15:35 METAR KHUL 162035Z AUTO 00000KT 10SM SCT013 M11/M13 A3040 RMK AO2 T11061133 =
2018-01-16 15:25 METAR KHUL 162025Z AUTO 00000KT 10SM BKN013 M10/M13 A3040 RMK AO2 T11001133 =
2018-01-16 14:53 METAR KHUL 161953Z AUTO 00000KT 4SM HZ OVC016 M10/M13 A3040 RMK AO2 SLP306
                 T11001128 =
2018-01-16 13:53 METAR KHUL 161853Z AUTO 00000KT 5SM HZ OVC018 M10/M13 A3039 RMK AO2 SNB08E45
                 SLP304 P0000 T11001133 =
2018-01-16 13:46 METAR KHUL 161846Z AUTO 05004KT 4SM HZ SCT014 OVC018 M10/M13 A3039 RMK AO2
                 SNB08E45 P0000 T11001133 =
2018-01-16 13:35 METAR KHUL 161835Z AUTO 00000KT 3SM -SN BKN014 OVC020 M10/M13 A3039 RMK AO2
                 SNB08 P0000 T11001133 =
2018-01-16 13:27 METAR KHUL 161827Z AUTO 00000KT 2 1/2SM -SN BKN016 OVC020 M10/M13 A3040 RMK AO2
                 SNB08 P0000 T11001133 =
2018-01-16 13:19 METAR KHUL 161819Z AUTO 00000KT 2 1/2SM -SN BKN014 OVC019 M10/M13 A3041 RMK AO2
                 SNB08 P0000 T11001133 =
2018-01-16 12:53 METAR KHUL 161753Z AUTO 00000KT 4SM HZ OVC018 M10/M13 A3041 RMK AO2
                 SNB03E11B17E26 SLP310 P0000 60000 T11001133 11100 21144 57010 =
2018-01-16 12:42 METAR KHUL 161742Z AUTO VRB03KT 3SM HZ OVC018 M11/M13 A3042 RMK AO2
                 SNB03E11B17E26 P0000 T11061133 =
2018-01-16 12:11 METAR KHUL 161711Z AUTO 00000KT 2 1/2SM HZ OVC019 M11/M14 A3041 RMK AO2 SNB03E11
                 P0000 T11111139 =
2018-01-16 11:53 METAR KHUL 161653Z AUTO 00000KT 4SM HZ OVC020 M11/M14 A3041 RMK AO2 SNE17 SLP311
                 P0000 T11111144 =
2018-01-16 11:26 METAR KHUL 161626Z AUTO 34004KT 3SM HZ OVC018 M12/M15 A3042 RMK AO2 SNE17 P0000
                 T11171150 =
2018-01-16 11:16 METAR KHUL 161616Z AUTO VRB03KT 2 1/2SM -SN OVC018 M12/M15 A3043 RMK AO2 P0000
                 T11171150 =
2018-01-16 10:53 METAR KHUL 161553Z AUTO 36007KT 1 1/2SM -SN OVC020 M12/M15 A3044 RMK AO2 SLP319
                 P0000 T11221150 =
2018-01-16 10:50 METAR KHUL 161550Z AUTO 35005KT 1 1/2SM -SN OVC020 M12/M15 A3044 RMK AO2 P0000 =
2018-01-16 10:40 METAR KHUL 161540Z AUTO 33005KT 1 1/4SM -SN OVC020 M13/M16 A3045 RMK AO2 P0000
                 T11281156 =
2018-01-16 10:13 METAR KHUL 161513Z AUTO 36004KT 2SM -SN OVC015 M13/M16 A3047 RMK AO2 P0000
                 T11331161 =
2018-01-16 09:57 METAR KHUL 161457Z AUTO 34005KT 1 1/4SM -SN OVC014 M13/M16 A3047 RMK AO2 P0000
                 T11331161 =
2018-01-16 09:53 METAR KHUL 161453Z AUTO 35006KT 2SM -SN OVC014 M13/M16 A3047 RMK AO2 SNB50
                 SLP330 P0000 60000 T11331161 55001 =

Support USWX by starting your Amazon purchase here.